Time;durP1;ratioP1;P1;durP2;ratioP2;P2;SDS_P1;SDS_P2;PMS_P1;PMS_P2;Temp;Humidity;BMP_temperature;BMP_pressure;BME280_temperature;BME280_humidity;BME280_pressure;Samples;Min_cycle;Max_cycle;Signal;HPM_P1;HPM_P2
2022/03/15 00:26:57;;;;;;;;;;;;;;;;;;;;;
2022/03/15 00:54:44;;;;;;;;;;;;;;;;;;;;;
2022/03/15 01:26:05;;;;;;;3.63;2.03;;;2.10;99.90;;;;;;6044035;23;20018;-83
2022/03/15 01:46:58;;;;;;;2.88;1.88;;;1.90;99.90;;;;;;6072542;23;20547;-83
2022/03/15 01:57:47;;;;;;;6.43;2.95;;;2.00;99.90;;;;;;5871008;24;20082;-83
2022/03/15 02:04:55;;;;;;;6.00;1.98;;;1.20;99.90;;;;;;5870781;24;20066;-82
2022/03/15 02:15:15;;;;;;;6.72;2.60;;;2.10;99.90;;;;;;5796222;24;20018;-82
2022/03/15 02:18:25;;;;;;;;;;;;;;;;;;;;;
2022/03/15 02:33:02;;;;;;;;;;;;;;;;;;;;;
2022/03/15 02:40:22;;;;;;;3.53;1.90;;;1.60;99.90;;;;;;5869527;24;20090;-83
2022/03/15 02:43:36;;;;;;;5.72;2.38;;;1.80;99.90;;;;;;5927287;24;20326;-83
2022/03/15 02:46:48;;;;;;;5.90;1.90;;;1.80;99.90;;;;;;5917556;24;20024;-81
2022/03/15 03:39:37;;;;;;;4.80;2.15;;;2.40;99.90;;;;;;6163800;22;1393340;-83
2022/03/15 03:46:48;;;;;;;;;;;;;;;;;;;;;
2022/03/15 04:22:47;;;;;;;6.25;3.58;;;3.00;99.90;;;;;;6014967;23;20031;-82
2022/03/15 04:26:03;;;;;;;;;;;;;;;;;;;;;
2022/03/15 04:29:09;;;;;;;8.30;4.13;;;3.10;99.90;;;;;;5883943;24;20015;-82
2022/03/15 04:48:13;;;;;;;;;;;;;;;;;;;;;
2022/03/15 05:28:34;;;;;;;;;;;;;;;;;;;;;
2022/03/15 06:32:03;;;;;;;;;;;4.60;99.90;;;;;;6253959;23;20096;-83
2022/03/15 06:46:05;;;;;;;7.70;3.78;;;4.80;99.90;;;;;;6225764;23;20034;-82
2022/03/15 06:48:43;;;;;;;6.63;3.58;;;4.70;99.90;;;;;;6226689;23;20023;-83
2022/03/15 06:55:46;;;;;;;;;;;;;;;;;;;;;
2022/03/15 06:58:36;;;;;;;9.75;4.03;;;4.90;99.90;;;;;;6227058;22;20342;-82
2022/03/15 07:01:04;;;;;;;6.95;3.20;;;6.00;99.90;;;;;;6251871;23;20050;-81
2022/03/15 07:03:30;;;;;;;9.48;4.35;;;4.90;99.90;;;;;;6252817;22;20011;-82
2022/03/15 07:05:56;;;;;;;8.15;4.32;;;5.00;99.90;;;;;;6226485;23;20059;-81
2022/03/15 07:08:25;;;;;;;8.98;4.30;;;5.00;99.90;;;;;;6252049;23;20062;-83
2022/03/15 07:10:56;;;;;;;6.82;3.53;;;5.10;99.90;;;;;;6251174;23;20012;-82
2022/03/15 07:13:27;;;;;;;11.07;3.63;;;5.40;99.90;;;;;;6251507;23;20023;-84
2022/03/15 07:15:55;;;;;;;10.52;4.07;;;4.50;99.90;;;;;;6223503;23;20016;-82
2022/03/15 07:18:21;;;;;;;10.32;4.40;;;5.20;99.90;;;;;;6225638;23;20397;-82
2022/03/15 07:20:52;;;;;;;9.25;4.68;;;6.50;99.90;;;;;;6251616;23;20401;-82
2022/03/15 07:23:23;;;;;;;6.88;4.00;;;6.60;99.90;;;;;;6251889;23;20337;-83
2022/03/15 07:26:00;;;;;;;9.55;4.38;;;5.80;99.90;;;;;;6253424;22;20039;-82
2022/03/15 07:28:32;;;;;;;8.60;4.50;;;5.30;99.90;;;;;;6246107;22;20462;-82
2022/03/15 07:31:00;;;;;;;9.32;4.43;;;6.40;99.90;;;;;;6245086;23;20327;-82
2022/03/15 07:34:01;;;;;;;9.88;4.43;;;5.70;99.90;;;;;;6244315;23;20016;-82
2022/03/15 07:37:01;;;;;;;10.27;5.18;;;5.70;99.90;;;;;;6099291;23;20786;-82
2022/03/15 07:39:33;;;;;;;9.20;4.82;;;6.40;99.90;;;;;;6099437;23;20024;-82
2022/03/15 07:42:01;;;;;;;10.23;5.03;;;5.70;99.90;;;;;;6123138;23;20080;-82
2022/03/15 07:44:42;;;;;;;10.02;5.78;;;5.70;99.90;;;;;;6099316;23;20474;-83
2022/03/15 07:47:14;;;;;;;10.00;4.60;;;5.70;99.90;;;;;;6099635;23;20137;-83
2022/03/15 07:49:53;;;;;;;13.95;5.82;;;6.30;99.90;;;;;;6099675;23;20025;-82
2022/03/15 07:55:23;;;;;;;12.75;5.70;;;5.80;99.90;;;;;;6271995;22;20470;-82
2022/03/15 07:57:51;;;;;;;11.50;5.55;;;5.50;99.90;;;;;;6249433;22;20020;-82
2022/03/15 08:03:53;;;;;;;;;;;;;;;;;;;;;
2022/03/15 08:07:39;;;;;;;12.45;6.63;;;6.10;99.90;;;;;;6183252;23;20063;-82
2022/03/15 08:10:09;;;;;;;11.38;6.40;;;5.60;99.90;;;;;;6099174;23;20162;-82
2022/03/15 08:12:49;;;;;;;10.55;6.32;;;5.90;99.90;;;;;;6094390;23;20055;-82
2022/03/15 08:15:25;;;;;;;14.10;7.20;;;6.00;99.90;;;;;;6094513;23;20029;-81
2022/03/15 08:17:57;;;;;;;12.35;6.40;;;6.10;99.90;;;;;;6070244;23;20089;-81
2022/03/15 08:28:19;;;;;;;15.05;7.00;;;6.50;99.90;;;;;;6094389;23;20057;-82
2022/03/15 08:30:53;;;;;;;18.23;8.27;;;6.30;99.90;;;;;;6093979;23;20030;-82
2022/03/15 08:33:38;;;;;;;12.65;6.38;;;6.40;99.90;;;;;;6069300;23;20037;-82
2022/03/15 08:36:44;;;;;;;14.30;6.82;;;6.50;99.90;;;;;;6093782;23;20411;-82
2022/03/15 08:40:13;;;;;;;14.68;6.47;;;6.60;99.90;;;;;;6067535;23;20014;-84
2022/03/15 08:42:50;;;;;;;15.10;7.43;;;7.00;99.90;;;;;;5914545;23;20516;-82
2022/03/15 08:45:17;;;;;;;13.85;7.10;;;7.10;99.90;;;;;;6018571;23;20015;-82
2022/03/15 08:47:46;;;;;;;11.77;6.70;;;6.70;99.90;;;;;;6012313;23;20019;-83
2022/03/15 08:50:22;;;;;;;12.07;6.55;;;7.10;99.90;;;;;;6036852;23;20024;-82
2022/03/15 08:52:55;;;;;;;16.73;8.45;;;6.80;99.90;;;;;;6036179;23;20460;-82
2022/03/15 08:55:36;;;;;;;15.57;8.02;;;7.90;99.90;;;;;;6036405;23;20030;-83
2022/03/15 08:58:44;;;;;;;12.25;7.15;;;6.70;99.90;;;;;;6035690;23;20624;-83
2022/03/15 09:02:01;;;;;;;16.08;8.75;;;7.30;99.90;;;;;;6007331;23;20023;-83
2022/03/15 09:04:57;;;;;;;13.30;7.30;;;7.30;99.90;;;;;;5963652;23;20066;-87
2022/03/15 09:07:23;;;;;;;20.48;7.70;;;7.30;99.90;;;;;;5989129;23;20469;-84
2022/03/15 09:10:19;;;;;;;17.73;9.43;;;7.30;99.90;;;;;;6011896;23;20152;-83
2022/03/15 09:13:16;;;;;;;13.52;7.97;;;6.90;99.90;;;;;;6036664;23;20102;-84
2022/03/15 09:16:23;;;;;;;20.75;9.43;;;8.10;99.90;;;;;;6045576;23;20029;-83
2022/03/15 09:19:51;;;;;;;;;;;;;;;;;;;;;
2022/03/15 09:34:40;;;;;;;;;;;;;;;;;;;;;
2022/03/15 09:42:53;;;;;;;17.00;8.68;;;8.30;99.90;;;;;;6065170;23;20018;-84
2022/03/15 09:56:38;;;;;;;19.30;9.80;;;8.40;99.90;;;;;;6187898;22;19960;-83
2022/03/15 09:59:40;;;;;;;19.83;9.70;;;8.50;99.90;;;;;;6274062;22;20069;-83
2022/03/15 10:03:29;;;;;;;21.60;11.80;;;9.50;99.90;;;;;;6150817;23;20030;-83
2022/03/15 10:31:12;;;;;;;17.98;9.73;;;9.90;99.90;;;;;;5979849;24;20023;-83
2022/03/15 10:34:39;;;;;;;18.77;10.05;;;10.00;99.90;;;;;;5979705;24;20027;-83
2022/03/15 10:38:21;;;;;;;18.17;10.07;;;9.90;99.90;;;;;;5901192;24;20437;-83
2022/03/15 10:44:41;;;;;;;;;;;;;;;;;;;;;
2022/03/15 10:47:28;;;;;;;20.65;10.95;;;10.20;99.90;;;;;;5865854;24;20014;-83
2022/03/15 10:51:02;;;;;;;18.23;10.65;;;10.30;99.90;;;;;;5865963;24;20014;-83
2022/03/15 10:58:01;;;;;;;;;;;;;;;;;;;;;
2022/03/15 11:01:13;;;;;;;16.52;9.60;;;10.40;99.90;;;;;;5788773;24;20081;-83
2022/03/15 11:04:20;;;;;;;14.45;8.82;;;10.50;99.90;;;;;;5761284;24;20014;-83
2022/03/15 11:07:20;;;;;;;15.07;8.75;;;10.50;99.90;;;;;;5768251;24;20530;-83
2022/03/15 11:10:04;;;;;;;18.25;9.23;;;10.60;99.90;;;;;;5791737;24;20363;-84
2022/03/15 11:13:11;;;;;;;14.43;9.15;;;10.60;99.90;;;;;;5796525;24;20064;-83
2022/03/15 11:16:23;;;;;;;16.20;9.05;;;11.00;99.90;;;;;;5847493;24;20026;-83
2022/03/15 11:18:59;;;;;;;16.42;8.65;;;10.90;99.90;;;;;;5847507;24;20029;-83
2022/03/15 11:26:02;;;;;;;16.02;9.70;;;10.70;99.90;;;;;;5898317;24;20517;-81
2022/03/15 11:29:06;;;;;;;12.93;8.13;;;10.80;99.90;;;;;;5898139;24;20537;-83
2022/03/15 11:32:16;;;;;;;14.02;7.40;;;10.90;99.90;;;;;;5875152;24;20409;-85
2022/03/15 11:34:51;;;;;;;13.85;7.10;;;10.90;99.90;;;;;;5927146;24;20012;-82
2022/03/15 11:45:09;;;;;;;11.10;7.13;;;11.00;99.90;;;;;;6056135;23;20370;-82
2022/03/15 11:48:05;;;;;;;16.50;8.02;;;11.00;99.90;;;;;;5984593;23;20059;-82
2022/03/15 11:50:58;;;;;;;14.02;8.30;;;11.60;99.90;;;;;;5985545;23;20023;-82
2022/03/15 11:53:51;;;;;;;18.25;8.65;;;10.90;99.90;;;;;;5985116;23;20167;-83
2022/03/15 11:56:41;;;;;;;17.02;8.88;;;10.80;99.90;;;;;;5985063;23;20034;-82
2022/03/15 11:59:09;;;;;;;17.05;8.82;;;10.90;99.90;;;;;;6008995;23;20030;-82
2022/03/15 12:01:52;;;;;;;15.48;8.65;;;10.70;99.90;;;;;;6022514;23;20027;-82
2022/03/15 12:04:31;;;;;;;13.70;8.60;;;10.90;99.90;;;;;;6093278;23;20033;-83
2022/03/15 12:07:03;;;;;;;17.85;8.90;;;10.90;99.90;;;;;;6094633;23;20014;-86
2022/03/15 12:09:37;;;;;;;12.73;8.18;;;10.90;99.90;;;;;;6094440;23;20022;-83
2022/03/15 12:12:15;;;;;;;19.85;9.32;;;10.90;99.90;;;;;;6094155;23;20554;-82
2022/03/15 12:14:51;;;;;;;16.05;8.00;;;10.80;99.90;;;;;;6094042;23;20327;-82
2022/03/15 12:17:26;;;;;;;14.57;8.32;;;10.90;99.90;;;;;;6069706;23;20022;-82
2022/03/15 12:19:54;;;;;;;14.63;8.90;;;10.90;99.90;;;;;;6069107;23;20019;-82
2022/03/15 12:22:34;;;;;;;14.52;8.50;;;10.80;99.90;;;;;;6132698;23;20031;-82
2022/03/15 12:25:07;;;;;;;14.02;7.82;;;10.80;99.90;;;;;;6246291;23;20027;-82
2022/03/15 12:27:50;;;;;;;12.90;6.35;;;10.80;99.90;;;;;;6219347;23;20012;-82
2022/03/15 12:30:53;;;;;;;11.63;6.30;;;10.80;99.90;;;;;;6219107;23;20016;-83
2022/03/15 12:33:28;;;;;;;10.32;5.45;;;10.80;99.90;;;;;;6093798;23;20021;-83
2022/03/15 12:36:06;;;;;;;11.60;6.43;;;10.70;99.90;;;;;;6093137;23;20168;-83
2022/03/15 12:38:40;;;;;;;11.35;4.93;;;10.70;99.90;;;;;;6070031;23;20087;-82
2022/03/15 12:41:43;;;;;;;;;;;;;;;;;;;;;
2022/03/15 12:44:48;;;;;;;8.98;4.03;;;10.60;99.90;;;;;;6093410;23;20018;-82
2022/03/15 12:47:31;;;;;;;7.97;4.03;;;10.60;99.90;;;;;;6069876;23;20015;-82
2022/03/15 12:57:44;;;;;;;9.82;3.20;;;10.80;99.90;;;;;;6103791;22;20074;-82
2022/03/15 13:00:24;;;;;;;5.25;1.80;;;11.00;99.90;;;;;;6187658;23;20443;-81
2022/03/15 13:02:54;;;;;;;7.40;3.05;;;11.10;99.90;;;;;;6218514;23;20026;-81
2022/03/15 13:05:51;;;;;;;5.38;3.05;;;11.40;99.90;;;;;;6218569;23;20087;-82
2022/03/15 13:08:20;;;;;;;7.82;3.28;;;11.60;99.90;;;;;;6245062;23;20027;-82
2022/03/15 13:11:17;;;;;;;5.00;2.42;;;11.60;99.90;;;;;;6244989;23;20396;-82
2022/03/15 13:13:46;;;;;;;4.65;2.58;;;11.70;99.90;;;;;;6218640;23;20039;-83
2022/03/15 13:16:12;;;;;;;3.25;1.63;;;12.20;99.90;;;;;;6217700;23;20036;-82
2022/03/15 13:18:55;;;;;;;3.28;2.28;;;11.80;99.90;;;;;;6217615;23;20372;-82
2022/03/15 13:29:20;;;;;;;5.38;2.40;;;11.80;99.90;;;;;;6091711;23;20021;-82
2022/03/15 13:32:15;;;;;;;5.78;2.65;;;12.10;99.90;;;;;;6035065;23;20066;-82
2022/03/15 13:34:56;;;;;;;5.68;2.88;;;12.50;99.90;;;;;;6034755;23;20019;-82
2022/03/15 13:40:52;;;;;;;7.22;2.80;;;12.90;99.90;;;;;;5981508;23;20031;-82
2022/03/15 13:54:59;;;;;;;5.72;2.75;;;12.50;99.90;;;;;;6228167;22;20024;-81
2022/03/15 13:58:36;;;;;;;7.68;2.47;;;12.40;99.90;;;;;;6152009;23;20025;-84
2022/03/15 14:02:26;;;;;;;8.93;2.58;;;12.40;99.90;;;;;;6044842;23;20022;-83
2022/03/15 14:20:01;;;;;;;3.80;2.38;;;12.00;99.90;;;;;;5872043;24;20029;-82
2022/03/15 14:22:58;;;;;;;7.13;3.00;;;12.10;99.90;;;;;;5873426;24;20006;-83
2022/03/15 14:26:07;;;;;;;4.85;2.47;;;12.00;99.90;;;;;;5873210;24;20100;-83
2022/03/15 14:29:11;;;;;;;6.50;3.00;;;11.40;99.90;;;;;;5876158;24;20040;-83
2022/03/15 14:31:43;;;;;;;7.07;3.10;;;12.00;99.90;;;;;;5871656;24;20478;-85
2022/03/15 14:34:53;;;;;;;7.28;2.88;;;12.00;99.90;;;;;;5835165;24;20059;-86
2022/03/15 14:40:19;;;;;;;4.05;2.60;;;12.00;99.90;;;;;;5934836;24;20013;-83
2022/03/15 14:42:50;;;;;;;7.07;2.60;;;12.00;99.90;;;;;;5981497;24;20156;-84
2022/03/15 14:45:19;;;;;;;5.20;2.67;;;12.10;99.90;;;;;;6004658;23;20094;-82
2022/03/15 14:47:45;;;;;;;7.28;2.53;;;12.00;99.90;;;;;;6038056;23;20030;-83
2022/03/15 14:50:13;;;;;;;7.40;3.33;;;11.30;99.90;;;;;;6014167;23;20020;-83
2022/03/15 14:52:39;;;;;;;5.35;2.53;;;12.00;99.90;;;;;;6055235;23;20018;-82
2022/03/15 14:55:05;;;;;;;6.93;2.63;;;11.90;99.90;;;;;;6095252;23;20476;-84
2022/03/15 14:57:31;;;;;;;7.55;2.67;;;11.90;99.90;;;;;;6201852;23;20078;-81
2022/03/15 14:59:58;;;;;;;4.35;2.50;;;11.90;99.90;;;;;;6216771;23;20091;-82
2022/03/15 15:02:27;;;;;;;4.40;2.47;;;11.90;99.90;;;;;;6216297;23;20462;-81
2022/03/15 15:04:54;;;;;;;4.78;2.17;;;11.90;99.90;;;;;;6216502;23;20100;-82
2022/03/15 15:07:22;;;;;;;6.40;2.42;;;11.90;99.90;;;;;;6216626;23;20083;-84
2022/03/15 15:09:49;;;;;;;5.43;2.30;;;11.80;99.90;;;;;;6216722;23;20024;-84
2022/03/15 15:12:19;;;;;;;5.03;2.28;;;11.80;99.90;;;;;;6216835;23;20039;-84
2022/03/15 15:14:51;;;;;;;4.80;1.83;;;11.80;99.90;;;;;;6216543;23;20051;-83
2022/03/15 15:17:19;;;;;;;7.97;2.47;;;11.80;99.90;;;;;;6215100;23;20135;-83
2022/03/15 15:20:25;;;;;;;4.35;2.20;;;11.80;99.90;;;;;;6216160;23;20016;-84
2022/03/15 15:45:37;;;;;;;;;;;;;;;;;;;;;
2022/03/15 16:20:05;;;;;;;3.65;1.70;;;11.20;99.90;;;;;;5979789;24;20043;-85
2022/03/15 16:22:47;;;;;;;2.92;1.50;;;10.80;99.90;;;;;;5980307;24;20097;-83
2022/03/15 16:25:47;;;;;;;2.72;1.58;;;10.90;99.90;;;;;;5980243;24;20031;-83
2022/03/15 16:28:24;;;;;;;4.40;2.30;;;10.60;99.90;;;;;;5847648;23;20514;-85
2022/03/15 16:31:15;;;;;;;4.13;1.77;;;10.60;99.90;;;;;;5952626;24;20032;-85
2022/03/15 16:33:50;;;;;;;3.97;2.03;;;10.60;99.90;;;;;;5952479;24;20024;-84
2022/03/15 16:36:52;;;;;;;5.13;1.52;;;10.60;99.90;;;;;;5953831;23;20092;-84
2022/03/15 16:43:49;;;;;;;4.22;1.65;;;10.60;99.90;;;;;;5927498;24;20560;-85
2022/03/15 16:46:43;;;;;;;7.47;3.00;;;10.30;99.90;;;;;;5951930;24;20100;-84
2022/03/15 16:49:11;;;;;;;4.30;2.35;;;10.20;99.90;;;;;;5952198;24;20024;-84
2022/03/15 16:51:41;;;;;;;5.05;3.05;;;10.20;99.90;;;;;;5929327;24;20020;-86
2022/03/15 16:54:07;;;;;;;5.05;2.67;;;10.40;99.90;;;;;;5938621;23;20020;-85
2022/03/15 17:00:00;;;;;;;5.10;3.05;;;9.90;99.90;;;;;;6274159;22;20027;-85
2022/03/15 17:02:33;;;;;;;7.45;3.88;;;10.00;99.90;;;;;;6247583;22;20020;-86
2022/03/15 17:08:27;;;;;;;8.10;4.35;;;9.80;99.90;;;;;;6217432;23;20255;-83
2022/03/15 17:11:11;;;;;;;7.22;3.83;;;9.90;99.90;;;;;;6074247;23;20060;-83
2022/03/15 17:13:46;;;;;;;5.22;2.90;;;9.60;99.90;;;;;;6074826;23;20038;-83
2022/03/15 17:16:32;;;;;;;8.50;3.17;;;9.00;99.90;;;;;;6122839;23;20036;-83
2022/03/15 17:19:10;;;;;;;6.15;3.53;;;9.50;99.90;;;;;;6122547;23;20015;-84
2022/03/15 17:22:29;;;;;;;6.22;3.70;;;9.80;99.90;;;;;;6063968;23;20374;-84
2022/03/15 17:25:08;;;;;;;7.28;4.35;;;9.40;99.90;;;;;;6040279;23;20023;-85
2022/03/15 17:28:23;;;;;;;9.77;4.70;;;9.40;99.90;;;;;;6064166;23;20025;-85
2022/03/15 17:31:17;;;;;;;10.90;4.97;;;9.30;99.90;;;;;;5884140;24;20030;-84
2022/03/15 17:33:49;;;;;;;7.90;4.43;;;9.20;99.90;;;;;;5928733;24;20023;-82
2022/03/15 17:36:18;;;;;;;11.50;6.07;;;9.00;99.90;;;;;;5929124;24;20027;-82
2022/03/15 17:38:48;;;;;;;11.00;5.97;;;9.10;99.90;;;;;;5928711;24;20096;-82
2022/03/15 17:41:21;;;;;;;8.45;5.05;;;9.70;99.90;;;;;;5997074;23;20026;-82
2022/03/15 17:43:51;;;;;;;11.95;5.45;;;9.90;99.90;;;;;;6041275;23;20077;-82
2022/03/15 17:46:40;;;;;;;12.48;6.93;;;9.00;99.90;;;;;;6041377;23;20348;-84
2022/03/15 17:49:12;;;;;;;12.95;6.65;;;9.00;99.90;;;;;;6041134;23;20458;-84
2022/03/15 17:51:50;;;;;;;12.80;6.80;;;9.00;99.90;;;;;;6142267;22;20027;-84
2022/03/15 18:02:39;;;;;;;17.40;11.40;;;8.90;99.90;;;;;;6245225;23;20032;-84
2022/03/15 18:05:53;;;;;;;15.82;9.68;;;8.80;99.90;;;;;;6243983;23;20022;-85
2022/03/15 18:15:45;;;;;;;14.85;8.65;;;8.70;99.90;;;;;;6244901;23;20031;-83
2022/03/15 18:18:27;;;;;;;15.23;8.82;;;8.70;99.90;;;;;;6244095;22;20016;-84
2022/03/15 18:21:05;;;;;;;13.25;7.80;;;9.70;99.90;;;;;;6219051;23;20012;-84
2022/03/15 18:30:22;;;;;;;13.13;7.63;;;8.00;99.90;;;;;;6242894;23;20070;-83
2022/03/15 18:33:06;;;;;;;12.68;8.60;;;8.50;99.90;;;;;;6241762;22;20517;-84
2022/03/15 18:35:40;;;;;;;12.93;8.35;;;8.50;99.90;;;;;;6244183;22;20101;-85
2022/03/15 18:38:17;;;;;;;13.90;7.60;;;9.50;99.90;;;;;;6242525;23;20027;-85
2022/03/15 18:40:50;;;;;;;13.50;8.20;;;8.50;99.90;;;;;;6242895;23;20024;-86
2022/03/15 18:43:20;;;;;;;11.02;6.68;;;8.40;99.90;;;;;;6217633;23;20466;-86
2022/03/15 18:46:19;;;;;;;11.10;6.60;;;8.90;99.90;;;;;;6242795;23;20020;-87
2022/03/15 18:51:51;;;;;;;11.85;6.15;;;8.30;99.90;;;;;;6244969;23;20024;-86
2022/03/15 18:58:15;;;;;;;13.68;7.43;;;8.10;99.90;;;;;;6245192;23;20089;-86
2022/03/15 19:00:51;;;;;;;11.45;7.10;;;8.20;99.90;;;;;;6217699;23;20530;-88
2022/03/15 19:03:52;;;;;;;14.85;7.70;;;8.50;99.90;;;;;;6234485;22;20091;-85
2022/03/15 19:07:33;;;;;;;14.30;7.00;;;8.10;99.90;;;;;;6122391;23;20049;-85
2022/03/15 19:16:01;;;;;;;12.02;6.53;;;8.00;99.90;;;;;;6243835;22;20024;-85
2022/03/15 19:18:59;;;;;;;10.10;6.00;;;7.90;99.90;;;;;;6242873;23;20023;-85
2022/03/15 19:30:09;;;;;;;10.90;7.07;;;7.90;99.90;;;;;;5867063;24;20446;-83
2022/03/15 19:33:13;;;;;;;13.73;7.05;;;7.80;99.90;;;;;;5792189;24;20015;-84
2022/03/15 19:35:45;;;;;;;11.93;7.13;;;7.80;99.90;;;;;;5795521;24;20366;-85
2022/03/15 19:44:19;;;;;;;12.75;7.32;;;7.70;99.90;;;;;;6271171;22;20473;31
2022/03/15 19:49:53;;;;;;;14.57;7.13;;;7.80;99.90;;;;;;6235737;22;20024;-87
2022/03/15 19:54:02;;;;;;;;;;;;;;;;;;;;;
2022/03/15 20:32:53;;;;;;;15.20;8.15;;;7.30;99.90;;;;;;5974533;24;20015;-83
2022/03/15 23:23:10;;;;;;;19.58;10.00;;;5.80;99.90;;;;;;6153338;23;20078;-84
2022/03/15 23:33:22;;;;;;;19.70;9.65;;;5.50;99.90;;;;;;5816319;24;20060;-85
2022/03/15 23:51:15;;;;;;;24.63;11.40;;;5.00;99.90;;;;;;5817401;24;20064;-84
